Time;durP1;ratioP1;P1;durP2;ratioP2;P2;SDS_P1;SDS_P2;PMS_P1;PMS_P2;Temp;Humidity;BMP_temperature;BMP_pressure;BME280_temperature;BME280_humidity;BME280_pressure;Samples;Min_cycle;Max_cycle;Signal;HPM_P1;HPM_P2
2022/03/08 00:02:09;;;;;;;22.93;13.77;;;-0.80;58.40;;;-2.34;50.37;97858.66;5030988;28;20406;-86
2022/03/08 00:04:35;;;;;;;21.55;14.35;;;-0.80;58.60;;;-2.39;50.99;97864.28;5029855;28;20411;-85
2022/03/08 00:07:02;;;;;;;22.73;14.38;;;-0.90;59.10;;;-2.33;51.73;97867.25;5046361;28;20429;-85
2022/03/08 00:09:29;;;;;;;21.20;14.20;;;-0.90;59.90;;;-2.35;52.87;97860.44;5030889;28;20395;-85
2022/03/08 00:11:55;;;;;;;23.52;15.65;;;-0.90;60.60;;;-2.38;52.75;97863.31;5046065;28;20411;-85
2022/03/08 00:14:21;;;;;;;26.02;15.13;;;-1.00;61.00;;;-2.45;52.92;97862.34;5029824;28;20927;-84
2022/03/08 00:16:47;;;;;;;21.83;14.43;;;-1.10;61.60;;;-2.57;52.64;97862.78;5031002;28;20403;-85
2022/03/08 00:19:13;;;;;;;24.65;15.35;;;-1.10;61.30;;;-2.48;53.38;97867.03;5046000;28;20426;-85
2022/03/08 00:21:40;;;;;;;25.60;15.75;;;-1.10;62.20;;;-2.53;53.42;97866.69;5045976;28;20437;-85
2022/03/08 00:24:06;;;;;;;23.65;15.35;;;-1.10;61.70;;;-2.60;53.60;97870.88;5031033;28;20465;-85
2022/03/08 00:26:34;;;;;;;20.55;12.98;;;-1.10;62.20;;;-2.84;53.15;97874.97;5029689;28;20938;-84
2022/03/08 00:29:00;;;;;;;18.73;12.20;;;-1.30;61.40;;;-2.94;53.25;97871.69;5029507;28;20395;-84
2022/03/08 00:31:26;;;;;;;18.80;11.77;;;-1.30;61.60;;;-3.01;53.58;97869.88;5030590;28;20402;-84
2022/03/08 00:33:52;;;;;;;17.98;11.77;;;-1.40;61.90;;;-3.04;53.96;97872.75;5031004;28;20403;-84
2022/03/08 00:36:18;;;;;;;19.50;12.93;;;-1.50;62.20;;;-3.12;54.20;97870.94;5045963;28;20498;-83
2022/03/08 00:38:44;;;;;;;25.23;14.52;;;-1.50;62.80;;;-2.97;55.19;97873.78;5030898;28;20915;-83
2022/03/08 00:41:10;;;;;;;20.17;13.38;;;-1.50;63.50;;;-3.12;54.85;97868.34;5031125;28;20410;-83
2022/03/08 00:43:37;;;;;;;24.20;14.65;;;-1.50;63.10;;;-2.98;55.11;97872.16;5030810;28;20403;-83
2022/03/08 00:46:03;;;;;;;24.83;14.35;;;-1.50;63.90;;;-3.09;55.35;97881.00;5030640;28;20945;-83
2022/03/08 00:48:29;;;;;;;24.98;15.32;;;-1.60;63.80;;;-3.05;55.68;97878.91;5030675;28;20430;-85
2022/03/08 00:50:56;;;;;;;25.65;15.80;;;-1.60;64.20;;;-3.02;55.81;97876.03;5030335;28;20395;-83
2022/03/08 00:53:22;;;;;;;26.00;15.82;;;-1.60;64.50;;;-3.03;56.01;97879.56;5030868;28;20422;-83
2022/03/08 00:55:48;;;;;;;24.75;16.00;;;-1.60;64.90;;;-3.09;56.19;97872.41;5034567;28;20411;-82
2022/03/08 00:58:14;;;;;;;27.00;16.57;;;-1.60;65.00;;;-3.24;56.21;97870.41;5033179;28;20477;-83
2022/03/08 01:00:42;;;;;;;24.90;14.88;;;-1.70;65.50;;;-3.38;56.02;97870.94;5033959;28;20410;-84
2022/03/08 01:03:08;;;;;;;28.50;16.15;;;-1.80;65.20;;;-3.29;56.35;97864.03;5033132;28;20827;-84
2022/03/08 01:05:34;;;;;;;28.20;16.20;;;-1.80;65.70;;;-3.31;56.96;97865.97;5034329;28;20431;-84
2022/03/08 01:08:01;;;;;;;29.92;17.02;;;-1.80;65.80;;;-3.34;56.89;97863.69;5034626;28;20409;-82
2022/03/08 01:10:28;;;;;;;25.90;16.10;;;-1.80;66.10;;;-3.46;56.80;97862.31;5033954;28;20482;-83
2022/03/08 01:12:56;;;;;;;26.75;16.63;;;-1.80;66.10;;;-3.44;57.10;97865.53;5034458;28;20406;-84
2022/03/08 01:15:24;;;;;;;28.95;17.88;;;-1.90;66.30;;;-3.38;57.29;97857.97;5034237;28;20395;-83
2022/03/08 01:17:53;;;;;;;28.33;17.13;;;-2.00;66.90;;;-3.42;57.18;97858.44;5033826;28;20515;-82
2022/03/08 01:20:19;;;;;;;28.27;16.75;;;-1.90;67.20;;;-3.40;57.60;97849.59;5033568;28;20409;-83
2022/03/08 01:22:45;;;;;;;28.08;17.65;;;-1.90;67.20;;;-3.48;57.45;97853.88;5034091;28;20406;-83
2022/03/08 01:25:14;;;;;;;27.55;16.73;;;-1.90;67.20;;;-3.51;57.47;97855.00;5034360;28;20391;-83
2022/03/08 01:27:41;;;;;;;25.58;14.63;;;-2.00;67.50;;;-3.71;57.58;97848.38;5034221;28;20399;-83
2022/03/08 01:30:10;;;;;;;27.15;16.63;;;-2.10;66.80;;;-3.61;58.13;97849.13;5034259;28;20403;-83
2022/03/08 01:32:36;;;;;;;27.77;17.25;;;-2.10;67.60;;;-3.67;57.91;97847.09;5033791;28;20403;-83
2022/03/08 01:35:05;;;;;;;27.42;16.98;;;-2.10;67.90;;;-3.57;57.78;97840.88;5034060;28;20403;-83
2022/03/08 01:37:31;;;;;;;27.80;16.65;;;-2.10;67.90;;;-3.73;58.09;97842.53;5032559;28;20773;-83
2022/03/08 01:39:58;;;;;;;27.90;16.80;;;-2.20;67.90;;;-3.70;57.95;97839.66;5034014;28;20461;-84
2022/03/08 01:42:25;;;;;;;28.13;16.05;;;-2.20;68.10;;;-3.69;58.35;97839.53;5033503;28;20411;-83
2022/03/08 01:44:53;;;;;;;27.60;16.75;;;-2.20;68.20;;;-3.78;58.02;97842.19;5033882;28;20403;-83
2022/03/08 01:47:22;;;;;;;27.00;15.95;;;-2.20;68.10;;;-3.76;58.32;97846.22;5034180;28;20399;-84
2022/03/08 01:49:49;;;;;;;32.23;17.13;;;-2.20;68.30;;;-3.70;58.59;97837.91;5032307;28;20402;-83
2022/03/08 01:52:22;;;;;;;28.48;17.00;;;-2.20;68.80;;;-3.69;58.60;97836.94;5032346;28;20411;-83
2022/03/08 01:54:49;;;;;;;29.08;16.65;;;-2.30;69.10;;;-3.78;58.67;97837.84;5033901;28;20457;-83
2022/03/08 01:57:15;;;;;;;29.83;16.27;;;-2.30;69.20;;;-3.84;58.55;97833.25;5034709;28;20888;-84
2022/03/08 01:59:42;;;;;;;26.17;15.30;;;-2.30;69.00;;;-3.90;58.88;97831.25;5034192;28;20968;-82
2022/03/08 02:02:10;;;;;;;27.45;15.85;;;-2.30;68.80;;;-3.94;58.38;97827.34;5040154;28;20891;-81
2022/03/08 02:04:36;;;;;;;26.70;16.23;;;-2.30;68.90;;;-3.96;58.78;97826.69;5033845;28;20415;-84
2022/03/08 02:07:04;;;;;;;25.92;15.02;;;-2.40;69.00;;;-4.03;58.91;97828.22;5037883;28;20445;-84
2022/03/08 02:09:32;;;;;;;26.63;16.45;;;-2.40;69.00;;;-3.94;58.96;97828.16;5044933;28;20395;-84
2022/03/08 02:11:58;;;;;;;25.77;16.10;;;-2.40;69.50;;;-4.01;59.25;97818.56;5034636;28;20413;-83
2022/03/08 02:14:26;;;;;;;30.10;17.42;;;-2.50;69.30;;;-3.95;58.98;97810.22;5034584;28;20410;-83
2022/03/08 02:16:52;;;;;;;26.75;15.65;;;-2.50;69.30;;;-4.07;59.13;97816.59;5035338;28;20399;-83
2022/03/08 02:19:18;;;;;;;25.38;15.80;;;-2.50;69.50;;;-4.13;59.12;97799.88;5034229;28;20411;-82
2022/03/08 02:21:45;;;;;;;24.10;14.85;;;-2.50;69.20;;;-4.15;59.15;97790.66;5031348;28;20494;-83
2022/03/08 02:24:11;;;;;;;26.80;15.90;;;-2.60;69.30;;;-4.01;59.03;97787.53;5031993;28;20407;-85
2022/03/08 02:26:38;;;;;;;25.92;15.85;;;-2.50;69.60;;;-4.07;59.03;97785.56;5032321;28;20896;-84
2022/03/08 02:29:08;;;;;;;28.25;15.88;;;-2.50;69.70;;;-4.09;59.26;97783.13;5047788;28;20819;-84
2022/03/08 02:31:34;;;;;;;24.15;14.93;;;-2.50;69.70;;;-4.11;59.26;97789.38;5032223;28;20414;-84
2022/03/08 02:34:00;;;;;;;26.88;15.77;;;-2.50;69.70;;;-4.11;59.14;97789.38;5032439;28;20403;-83
2022/03/08 02:36:26;;;;;;;27.30;16.10;;;-2.60;69.70;;;-4.04;59.11;97785.25;5032694;28;20493;-83
2022/03/08 02:38:53;;;;;;;29.03;15.83;;;-2.60;69.70;;;-4.03;59.57;97792.03;5032165;28;20434;-83
2022/03/08 02:41:19;;;;;;;25.85;15.23;;;-2.60;70.00;;;-4.17;59.24;97802.91;5030666;28;20403;-82
2022/03/08 02:43:45;;;;;;;20.02;13.05;;;-2.60;70.10;;;-4.39;59.49;97797.22;5032357;28;20395;-84
2022/03/08 02:46:11;;;;;;;27.75;15.27;;;-2.70;69.90;;;-4.28;60.07;97795.41;5031444;28;20407;-84
2022/03/08 02:48:37;;;;;;;24.00;13.88;;;-2.70;70.40;;;-4.45;59.72;97791.84;5032266;28;20498;-82
2022/03/08 02:51:03;;;;;;;22.80;13.60;;;-2.80;70.10;;;-4.54;59.97;97798.69;5031829;28;20395;-83
2022/03/08 02:53:30;;;;;;;22.00;13.32;;;-2.90;70.20;;;-4.51;59.96;97795.81;5032387;28;20490;-83
2022/03/08 02:55:57;;;;;;;21.23;13.02;;;-2.90;70.50;;;-4.53;60.06;97791.75;5031632;28;20915;-82
2022/03/08 02:58:24;;;;;;;25.05;15.38;;;-2.90;70.40;;;-4.43;60.41;97787.31;5031617;28;20908;-82
2022/03/08 03:00:50;;;;;;;25.42;16.13;;;-2.90;70.70;;;-4.36;60.19;97786.59;5031231;28;20477;-84
2022/03/08 03:03:16;;;;;;;23.23;14.33;;;-2.90;71.20;;;-4.64;60.32;97787.59;5032223;28;20438;-84
2022/03/08 03:05:42;;;;;;;20.95;13.45;;;-3.00;70.70;;;-4.62;60.88;97787.47;5031967;28;20394;-84
2022/03/08 03:08:09;;;;;;;25.92;15.27;;;-3.00;71.20;;;-4.62;60.75;97779.72;5032090;28;20395;-84
2022/03/08 03:10:35;;;;;;;29.55;16.67;;;-3.00;71.70;;;-4.47;61.04;97786.00;5031457;28;20438;-84
2022/03/08 03:13:03;;;;;;;26.80;15.48;;;-3.00;72.30;;;-4.62;61.27;97766.81;5031782;28;20419;-84
2022/03/08 03:15:30;;;;;;;28.30;16.15;;;-3.00;72.50;;;-4.50;61.83;97771.59;5031651;28;20407;-84
2022/03/08 03:17:56;;;;;;;23.83;14.38;;;-3.00;72.90;;;-4.74;61.53;97763.63;5031471;28;20904;-84
2022/03/08 03:20:24;;;;;;;23.00;13.90;;;-3.10;72.30;;;-4.80;61.81;97759.03;5031256;28;20399;-83
2022/03/08 03:22:50;;;;;;;23.20;14.02;;;-3.10;72.50;;;-4.72;61.96;97759.13;5031858;28;20441;-82
2022/03/08 03:25:17;;;;;;;22.83;13.95;;;-3.10;72.60;;;-4.73;61.39;97763.47;5031701;28;20465;-83
2022/03/08 03:27:43;;;;;;;23.90;14.95;;;-3.10;72.50;;;-4.72;61.31;97752.19;5031543;28;20407;-83
2022/03/08 03:30:14;;;;;;;25.10;14.20;;;-3.10;72.30;;;-4.76;61.50;97755.22;5030965;28;20498;-84
2022/03/08 03:32:41;;;;;;;26.98;15.55;;;-3.10;72.60;;;-4.67;61.79;97751.75;5027032;28;20391;-84
2022/03/08 03:35:09;;;;;;;26.73;14.57;;;-3.10;72.80;;;-4.85;61.63;97748.34;5031491;28;20615;-83
2022/03/08 03:37:35;;;;;;;23.00;14.13;;;-3.20;72.50;;;-4.82;62.02;97756.63;5031336;28;20401;-83
2022/03/08 03:40:02;;;;;;;20.97;13.80;;;-3.20;72.90;;;-4.78;61.96;97746.78;5031245;28;20419;-82
2022/03/08 03:42:28;;;;;;;25.70;14.82;;;-3.20;72.90;;;-4.69;62.01;97740.75;5031359;28;20403;-83
2022/03/08 03:44:54;;;;;;;22.98;13.73;;;-3.10;73.30;;;-4.73;62.11;97752.31;5031288;28;20837;-83
2022/03/08 03:47:21;;;;;;;22.20;13.80;;;-3.10;73.30;;;-4.88;62.09;97749.44;5031337;28;20395;-83
2022/03/08 03:49:47;;;;;;;23.08;13.50;;;-3.20;72.90;;;-4.88;62.33;97743.44;5031175;28;20881;-83
2022/03/08 03:52:13;;;;;;;26.95;15.88;;;-3.20;73.30;;;-4.75;62.53;97749.09;5031051;28;20415;-83
2022/03/08 03:54:39;;;;;;;25.25;14.20;;;-3.20;73.70;;;-4.90;61.96;97746.19;5031248;28;20402;-84
2022/03/08 03:57:05;;;;;;;24.33;13.73;;;-3.30;73.40;;;-4.96;62.20;97751.13;5031149;28;20513;-83
2022/03/08 03:59:31;;;;;;;23.52;13.60;;;-3.30;73.30;;;-4.86;62.45;97747.53;5030874;28;20419;-82
2022/03/08 04:01:57;;;;;;;23.65;13.40;;;-3.30;73.70;;;-4.90;62.49;97753.13;5030590;28;20406;-82
2022/03/08 04:04:24;;;;;;;28.13;15.93;;;-3.30;73.50;;;-4.71;62.15;97750.41;5029647;28;20433;-83
2022/03/08 04:06:50;;;;;;;26.30;15.27;;;-3.20;73.70;;;-4.84;62.48;97747.38;5029613;28;20958;-82
2022/03/08 04:09:16;;;;;;;24.27;14.13;;;-3.20;73.80;;;-4.87;62.35;97745.06;5030838;28;20413;-84
2022/03/08 04:11:42;;;;;;;28.52;16.85;;;-3.30;73.80;;;-4.81;62.64;97750.47;5029859;28;20411;-83
2022/03/08 04:14:08;;;;;;;23.88;14.43;;;-3.30;74.10;;;-4.95;62.92;97742.41;5030423;28;20485;-83
2022/03/08 04:16:34;;;;;;;22.42;14.43;;;-3.30;74.00;;;-5.02;62.77;97747.34;5030580;28;20435;-82
2022/03/08 04:19:00;;;;;;;22.60;14.20;;;-3.40;74.00;;;-5.01;62.48;97743.81;5030139;28;20411;-82
2022/03/08 04:21:27;;;;;;;29.13;15.18;;;-3.30;74.20;;;-4.92;62.91;97745.53;5030259;28;20442;-81
2022/03/08 04:23:53;;;;;;;25.60;15.15;;;-3.40;74.30;;;-4.96;63.35;97745.97;5030713;28;20399;-82
2022/03/08 04:26:19;;;;;;;24.67;14.90;;;-3.40;74.30;;;-5.05;62.95;97736.50;5029192;28;20517;-82
2022/03/08 04:28:45;;;;;;;25.65;15.50;;;-3.40;74.40;;;-5.05;63.29;97752.81;5029904;28;20410;-83
2022/03/08 04:31:11;;;;;;;22.23;14.02;;;-3.40;74.60;;;-5.09;63.50;97741.94;5030040;28;20411;-82
2022/03/08 04:33:37;;;;;;;21.20;13.25;;;-3.40;74.70;;;-5.15;63.03;97742.53;5030668;28;20410;-82
2022/03/08 04:36:03;;;;;;;28.90;16.38;;;-3.50;74.40;;;-5.03;63.57;97745.72;5030449;28;20399;-81
2022/03/08 04:38:31;;;;;;;27.00;14.95;;;-3.50;74.90;;;-5.16;63.36;97740.91;5030387;28;20418;-82
2022/03/08 04:40:57;;;;;;;27.70;15.50;;;-3.50;74.80;;;-5.10;63.45;97736.91;5030032;28;20768;-82
2022/03/08 04:43:23;;;;;;;28.92;16.58;;;-3.50;75.10;;;-5.05;63.63;97745.06;5030354;28;20400;-82
2022/03/08 04:45:49;;;;;;;24.90;15.07;;;-3.40;75.10;;;-5.01;63.48;97743.00;5029812;28;20925;-82
2022/03/08 04:48:16;;;;;;;27.87;16.13;;;-3.40;75.30;;;-4.90;63.46;97745.38;5029635;28;20396;-81
2022/03/08 04:50:42;;;;;;;26.60;15.93;;;-3.40;75.30;;;-4.86;63.74;97747.53;5029888;28;20399;-80
2022/03/08 04:53:08;;;;;;;27.08;15.95;;;-3.40;75.50;;;-4.91;63.55;97746.34;5031257;28;20407;-81
2022/03/08 04:55:35;;;;;;;25.70;15.77;;;-3.30;75.50;;;-4.83;63.42;97749.00;5031059;28;20411;-81
2022/03/08 04:58:01;;;;;;;27.98;16.27;;;-3.30;75.50;;;-4.83;63.54;97743.84;5034489;28;20705;-83
2022/03/08 05:00:27;;;;;;;24.58;14.70;;;-3.40;75.50;;;-4.82;63.18;97741.13;5023953;28;20421;-81
2022/03/08 05:02:53;;;;;;;23.10;14.03;;;-3.30;75.50;;;-4.82;63.33;97745.47;5030849;28;20780;-81
2022/03/08 05:05:19;;;;;;;23.38;14.45;;;-3.30;75.20;;;-4.77;62.96;97745.84;5031521;28;20399;-81
2022/03/08 05:07:45;;;;;;;20.77;12.90;;;-3.30;75.00;;;-4.97;63.50;97742.56;5031176;28;20399;-80
2022/03/08 05:10:12;;;;;;;22.13;13.13;;;-3.40;74.90;;;-4.89;63.50;97745.25;5040258;28;20878;-80
2022/03/08 05:12:41;;;;;;;23.23;13.02;;;-3.30;75.00;;;-4.88;63.27;97740.88;5032214;28;20395;-83
2022/03/08 05:15:10;;;;;;;24.73;14.48;;;-3.30;74.90;;;-4.75;63.10;97739.59;5032275;28;20422;-76
2022/03/08 05:17:36;;;;;;;22.40;13.47;;;-3.30;75.10;;;-4.72;62.65;97741.84;5028695;28;20413;-76
2022/03/08 05:20:04;;;;;;;24.70;13.63;;;-3.20;74.80;;;-4.82;62.72;97737.72;5038539;23;20433;-77
2022/03/08 05:22:30;;;;;;;19.40;11.82;;;-3.20;74.70;;;-4.93;63.04;97730.19;5035524;28;20457;-75
2022/03/08 05:24:56;;;;;;;19.83;11.50;;;-3.30;74.50;;;-4.99;63.25;97734.16;5040765;28;20398;-77
2022/03/08 05:27:22;;;;;;;19.58;11.52;;;-3.40;74.60;;;-5.02;63.21;97733.63;5043660;28;20815;-79
2022/03/08 05:29:49;;;;;;;24.35;12.05;;;-3.40;74.70;;;-4.90;62.88;97735.88;5036217;28;20457;-79
2022/03/08 05:32:15;;;;;;;23.50;13.27;;;-3.30;74.80;;;-4.84;63.17;97730.13;5028221;28;20423;-78
2022/03/08 05:34:41;;;;;;;18.75;11.63;;;-3.40;75.00;;;-4.96;63.29;97730.47;5029114;28;20411;-79
2022/03/08 05:37:07;;;;;;;17.88;11.57;;;-3.40;74.90;;;-5.02;63.03;97724.09;5029296;28;20415;-79
2022/03/08 05:39:33;;;;;;;19.77;11.90;;;-3.40;75.00;;;-4.86;63.11;97728.63;5029077;28;20892;-78
2022/03/08 05:41:59;;;;;;;19.95;12.43;;;-3.40;74.90;;;-4.88;63.00;97733.94;5032347;28;20402;-79
2022/03/08 05:44:24;;;;;;;19.45;11.68;;;-3.30;74.80;;;-4.79;62.75;97732.25;5033037;28;20915;-78
2022/03/08 05:46:52;;;;;;;17.52;10.57;;;-3.30;74.60;;;-4.92;62.77;97732.63;5032174;28;20767;-78
2022/03/08 05:49:18;;;;;;;21.33;12.45;;;-3.30;74.50;;;-4.83;62.86;97728.34;5032857;28;20461;-85
2022/03/08 05:51:44;;;;;;;19.85;11.57;;;-3.40;74.60;;;-4.94;63.05;97728.56;5030239;28;20899;-75
2022/03/08 05:54:10;;;;;;;19.45;11.38;;;-3.40;74.80;;;-4.79;62.68;97732.25;5031906;28;20395;-77
2022/03/08 05:56:36;;;;;;;18.50;12.05;;;-3.30;74.70;;;-4.86;62.77;97726.06;5032575;28;20399;-78
2022/03/08 05:59:02;;;;;;;15.80;10.88;;;-3.30;74.80;;;-4.89;62.87;97734.91;5032493;28;20494;-76
2022/03/08 06:01:28;;;;;;;19.33;11.00;;;-3.30;74.60;;;-4.93;62.84;97725.81;5028893;28;20493;-77
2022/03/08 06:03:55;;;;;;;19.17;11.55;;;-3.30;74.50;;;-4.93;62.71;97730.19;5030896;28;20919;-78
2022/03/08 06:06:21;;;;;;;18.73;11.25;;;-3.30;74.50;;;-4.87;62.81;97740.72;5032593;28;20410;-78
2022/03/08 06:08:49;;;;;;;18.33;11.10;;;-3.30;74.60;;;-4.82;62.60;97735.97;5032772;28;20917;-74
2022/03/08 06:11:15;;;;;;;18.00;11.82;;;-3.20;74.50;;;-4.78;62.59;97739.88;5032186;28;20781;-78
2022/03/08 06:13:41;;;;;;;17.88;11.15;;;-3.20;74.40;;;-4.76;62.42;97743.13;5032604;28;20418;-76
2022/03/08 06:16:07;;;;;;;17.55;11.32;;;-3.20;74.50;;;-4.69;62.26;97746.75;5023998;28;20461;-76
2022/03/08 06:18:33;;;;;;;18.43;10.77;;;-3.10;74.40;;;-4.66;62.26;97748.19;5032325;28;21064;-76
2022/03/08 06:21:00;;;;;;;16.50;9.95;;;-3.10;74.10;;;-4.63;62.02;97754.84;5031459;28;20435;-76
2022/03/08 06:23:26;;;;;;;15.70;10.35;;;-3.10;73.90;;;-4.54;61.86;97759.13;5032361;28;20415;-76
2022/03/08 06:25:52;;;;;;;18.80;10.80;;;-3.00;73.70;;;-4.48;61.86;97758.53;5032390;28;20411;-76
2022/03/08 06:28:18;;;;;;;17.30;10.00;;;-3.00;73.50;;;-4.51;61.66;97758.84;5032335;28;20476;-76
2022/03/08 06:30:44;;;;;;;19.70;11.02;;;-3.00;73.50;;;-4.37;61.46;97761.72;5031780;28;20502;-76
2022/03/08 06:33:10;;;;;;;22.10;10.77;;;-2.90;73.60;;;-4.34;61.58;97770.94;5032417;28;20402;-77
2022/03/08 06:35:36;;;;;;;20.42;12.00;;;-2.90;73.50;;;-4.26;61.25;97777.94;5032379;28;20425;-76
2022/03/08 06:38:03;;;;;;;17.27;10.93;;;-2.80;73.50;;;-4.23;61.72;97769.91;5032203;28;20430;-76
2022/03/08 06:40:30;;;;;;;20.50;11.43;;;-2.80;73.50;;;-4.18;61.34;97771.09;5031668;28;20446;-76
2022/03/08 06:42:56;;;;;;;16.90;10.10;;;-2.70;73.60;;;-4.10;61.22;97770.34;5032084;28;20451;-77
2022/03/08 06:45:22;;;;;;;17.83;10.50;;;-2.70;73.10;;;-4.02;60.75;97773.00;5032130;28;20489;-77
2022/03/08 06:47:48;;;;;;;17.27;10.57;;;-2.60;72.70;;;-3.95;60.37;97777.41;5031289;28;20415;-77
2022/03/08 06:50:13;;;;;;;20.77;11.77;;;-2.50;72.50;;;-3.84;60.01;97783.31;5031257;28;20392;-77
2022/03/08 06:52:40;;;;;;;19.33;11.45;;;-2.40;72.00;;;-3.76;59.75;97784.16;5031800;28;21091;-77
2022/03/08 06:55:08;;;;;;;17.60;10.25;;;-2.30;71.40;;;-3.73;59.80;97788.22;5031676;28;20411;-77
2022/03/08 06:57:34;;;;;;;16.10;10.13;;;-2.30;71.20;;;-3.63;59.47;97789.75;5031832;28;20402;-77
2022/03/08 07:00:00;;;;;;;16.88;9.73;;;-2.20;71.00;;;-3.56;59.27;97790.78;5031362;28;20415;-77
2022/03/08 07:02:26;;;;;;;17.17;10.20;;;-2.10;70.70;;;-3.44;58.97;97793.91;5034162;28;20872;-77
2022/03/08 07:04:52;;;;;;;17.23;9.70;;;-2.00;71.30;;;-3.37;58.81;97796.69;5031716;28;20439;-77
2022/03/08 07:07:18;;;;;;;15.45;9.30;;;-1.90;70.40;;;-3.26;58.41;97799.84;5031573;28;20407;-77
2022/03/08 07:09:44;;;;;;;13.35;8.70;;;-1.80;70.10;;;-3.17;58.62;97793.75;5031141;28;20406;-77
2022/03/08 07:12:11;;;;;;;15.35;9.20;;;-1.80;69.90;;;-3.04;57.79;97795.09;5031228;28;20410;-77
2022/03/08 07:14:37;;;;;;;15.88;9.45;;;-1.70;69.50;;;-2.92;57.69;97797.22;5031451;28;20418;-77
2022/03/08 07:17:04;;;;;;;14.63;8.77;;;-1.60;69.20;;;-2.80;57.70;97793.41;5031382;28;20411;-77
2022/03/08 07:19:30;;;;;;;15.93;8.25;;;-1.40;68.90;;;-2.68;56.82;97780.16;5031019;28;20786;-76
2022/03/08 07:21:56;;;;;;;16.95;10.05;;;-1.30;68.50;;;-2.55;56.56;97791.66;5029528;28;20897;-73
2022/03/08 07:24:21;;;;;;;16.52;9.13;;;-1.20;67.70;;;-2.42;56.04;97780.88;5028240;28;20465;-73
2022/03/08 07:26:47;;;;;;;12.80;8.33;;;-1.10;67.30;;;-2.30;55.70;97782.16;5029679;28;20415;-75
2022/03/08 07:29:15;;;;;;;11.73;8.02;;;-1.00;66.90;;;-2.20;55.53;97777.66;5031141;28;20542;-72
2022/03/08 07:31:40;;;;;;;10.82;7.60;;;-0.80;66.60;;;-2.11;55.27;97781.06;5030527;28;20399;-77
2022/03/08 07:34:06;;;;;;;14.23;8.50;;;-0.80;66.20;;;-2.03;55.17;97773.28;5031179;28;20399;-75
2022/03/08 07:36:33;;;;;;;11.95;7.97;;;-0.70;66.00;;;-1.95;55.00;97779.25;5031029;28;20413;-79
2022/03/08 07:39:00;;;;;;;13.65;8.05;;;-0.60;65.80;;;-1.88;55.29;97792.38;5030813;28;20419;-76
2022/03/08 07:41:26;;;;;;;12.63;8.02;;;-0.50;65.60;;;-1.82;54.74;97777.97;5029606;28;20412;-76
2022/03/08 07:43:51;;;;;;;12.55;8.18;;;-0.50;65.50;;;-1.73;54.94;97790.75;5026719;28;20439;-76
2022/03/08 07:46:19;;;;;;;12.90;8.00;;;-0.40;65.30;;;-1.64;54.87;97791.56;5028027;28;20779;-75
2022/03/08 07:48:47;;;;;;;12.55;7.90;;;-0.40;65.00;;;-1.57;54.37;97795.13;5023636;28;20490;-74
2022/03/08 07:51:13;;;;;;;11.43;7.90;;;-0.30;65.00;;;-1.48;54.38;97790.72;5019688;28;20839;-73
2022/03/08 07:53:39;;;;;;;11.18;7.72;;;-0.20;64.90;;;-1.40;54.22;97794.13;5029598;28;20414;-74
2022/03/08 07:56:05;;;;;;;14.48;8.60;;;-0.10;64.70;;;-1.32;53.97;97791.50;5026651;28;20429;-73
2022/03/08 07:58:31;;;;;;;11.52;7.88;;;0.00;64.60;;;-1.23;53.86;97797.50;5026284;28;20423;-80
2022/03/08 08:00:57;;;;;;;14.27;8.15;;;0.00;64.40;;;-1.15;53.93;97797.47;5026445;28;20433;-74
2022/03/08 08:03:24;;;;;;;13.70;7.67;;;0.10;64.30;;;-1.08;53.47;97793.25;5029597;28;20502;-74
2022/03/08 08:05:50;;;;;;;12.18;7.93;;;0.20;63.90;;;-1.00;53.57;97798.41;5030324;28;20403;-85
2022/03/08 08:08:16;;;;;;;14.27;8.40;;;0.30;63.80;;;-0.93;53.15;97799.34;5028456;28;20506;-74
2022/03/08 08:10:42;;;;;;;12.10;8.27;;;0.30;63.20;;;-0.84;52.91;97798.34;5028932;28;20411;-75
2022/03/08 08:13:08;;;;;;;12.07;7.90;;;0.40;63.20;;;-0.77;53.12;97800.25;5030184;28;20403;-74
2022/03/08 08:15:36;;;;;;;13.23;7.97;;;0.50;63.00;;;-0.68;52.74;97800.06;5030403;28;20403;-75
2022/03/08 08:18:03;;;;;;;11.15;7.93;;;0.60;62.50;;;-0.60;52.71;97800.00;5023165;28;20798;-76
2022/03/08 08:20:30;;;;;;;11.45;8.27;;;0.70;62.40;;;-0.53;51.94;97802.75;5029147;28;20757;-76
2022/03/08 08:22:56;;;;;;;12.23;8.20;;;0.70;61.90;;;-0.45;51.71;97797.47;5030312;28;20418;-76
2022/03/08 08:25:22;;;;;;;11.52;7.88;;;0.80;61.60;;;-0.36;52.02;97798.25;5030365;28;20442;-76
2022/03/08 08:27:48;;;;;;;17.53;8.97;;;0.90;61.30;;;-0.22;50.85;97792.31;5029374;28;20407;-75
2022/03/08 08:30:14;;;;;;;11.35;8.13;;;1.00;60.00;;;-0.19;50.87;97804.97;5028986;28;20407;-75
2022/03/08 08:32:41;;;;;;;10.80;7.70;;;1.10;60.40;;;-0.14;51.05;97792.25;5030140;28;20470;-76
2022/03/08 08:35:07;;;;;;;12.13;7.65;;;1.10;60.50;;;-0.10;50.87;97796.13;5030331;28;20430;-75
2022/03/08 08:37:35;;;;;;;14.45;8.82;;;1.10;60.20;;;-0.07;50.84;97808.78;5030137;28;20430;-77
2022/03/08 08:40:01;;;;;;;14.05;8.48;;;1.20;60.10;;;-0.01;50.89;97806.31;5028107;28;20422;-78
2022/03/08 08:42:27;;;;;;;12.00;7.82;;;1.20;60.00;;;0.05;50.60;97801.41;5028560;28;20443;-79
2022/03/08 08:44:53;;;;;;;11.35;7.68;;;1.20;60.00;;;0.12;50.61;97803.13;5029969;28;20816;-77
2022/03/08 08:47:19;;;;;;;14.40;8.70;;;1.30;60.00;;;0.18;50.50;97797.22;5030073;28;20402;-78
2022/03/08 08:49:45;;;;;;;13.88;8.50;;;1.40;59.70;;;0.25;50.37;97798.13;5024130;28;20412;-75
2022/03/08 08:52:11;;;;;;;13.52;8.25;;;1.50;59.30;;;0.30;50.19;97802.84;5029256;28;20493;-75
2022/03/08 08:54:38;;;;;;;13.23;8.68;;;1.50;59.30;;;0.49;48.50;97797.13;5028597;28;20419;-76
2022/03/08 08:57:05;;;;;;;11.15;7.18;;;1.80;57.70;;;0.54;49.14;97789.56;5027169;28;20419;-77
2022/03/08 08:59:30;;;;;;;11.20;7.30;;;1.80;58.00;;;0.56;49.21;97778.97;5029696;28;20967;-78
2022/03/08 09:01:57;;;;;;;10.35;7.30;;;1.70;58.00;;;0.59;49.10;97778.63;5026679;28;20417;-79
2022/03/08 09:04:23;;;;;;;11.82;7.30;;;1.80;58.20;;;0.65;48.90;97773.50;5029906;28;20430;-79
2022/03/08 09:06:48;;;;;;;11.35;7.53;;;1.80;58.10;;;0.71;48.76;97783.22;5029752;28;20772;-74
2022/03/08 09:09:15;;;;;;;11.07;7.88;;;1.90;58.00;;;0.77;48.50;97774.69;5026002;28;20454;-74
2022/03/08 09:11:42;;;;;;;10.35;7.30;;;2.00;57.50;;;0.85;48.39;97773.78;5023147;28;21253;-74
2022/03/08 09:14:09;;;;;;;10.43;7.20;;;2.00;57.40;;;0.99;46.82;97772.97;5030302;28;20406;-74
2022/03/08 09:16:35;;;;;;;10.30;6.78;;;2.30;56.00;;;1.02;47.00;97772.63;5033298;28;20820;-75
2022/03/08 09:19:01;;;;;;;9.32;6.28;;;2.20;56.00;;;1.12;46.71;97767.94;5033370;28;20415;-75
2022/03/08 09:21:27;;;;;;;11.18;6.78;;;2.30;55.60;;;1.15;46.97;97767.56;5032908;28;20439;-76
2022/03/08 09:23:52;;;;;;;11.10;7.03;;;2.30;56.40;;;1.17;47.24;97762.16;5033451;28;20832;-75
2022/03/08 09:26:18;;;;;;;11.43;6.15;;;2.30;56.00;;;1.26;46.53;97768.91;5033411;28;20446;-75
2022/03/08 09:28:46;;;;;;;10.93;7.10;;;2.40;55.90;;;1.34;46.53;97781.84;5032838;28;20427;-77
2022/03/08 09:31:12;;;;;;;10.55;6.60;;;2.60;55.40;;;1.35;45.99;97761.78;5029722;28;20422;-77
2022/03/08 09:33:39;;;;;;;9.98;6.78;;;2.50;54.40;;;1.43;44.93;97770.28;5033042;28;20902;-76
2022/03/08 09:36:05;;;;;;;11.50;6.95;;;2.70;53.50;;;1.49;45.08;97769.56;5033174;28;20744;-76
2022/03/08 09:38:31;;;;;;;10.18;6.10;;;2.70;54.20;;;1.53;45.07;97770.00;5029299;28;20449;-76
2022/03/08 09:41:02;;;;;;;9.35;6.18;;;2.70;53.70;;;1.55;45.37;97773.25;5030210;28;20411;-77
2022/03/08 09:43:29;;;;;;;17.45;6.40;;;2.70;53.80;;;1.65;44.90;97780.78;5024752;28;20404;-76
2022/03/08 09:45:56;;;;;;;12.50;6.60;;;2.80;53.40;;;1.66;44.80;97775.34;5028971;28;20761;-75
2022/03/08 09:48:22;;;;;;;7.45;5.45;;;2.90;53.10;;;1.72;44.79;97785.06;5028400;28;20481;-77
2022/03/08 09:50:48;;;;;;;8.90;6.25;;;2.80;53.30;;;1.79;44.56;97779.91;5027720;28;20485;-77
2022/03/08 09:53:14;;;;;;;9.35;6.50;;;3.00;53.10;;;1.84;44.54;97778.34;5027279;28;20981;-74
2022/03/08 09:55:40;;;;;;;9.70;6.30;;;3.00;52.80;;;1.88;44.76;97774.38;5029655;28;20462;-74
2022/03/08 09:58:06;;;;;;;9.30;6.15;;;3.00;53.20;;;1.93;44.74;97766.00;5027653;28;20474;-74
2022/03/08 10:00:32;;;;;;;10.43;5.67;;;3.00;53.10;;;2.03;45.02;97769.06;5031416;28;20453;-75
2022/03/08 10:03:00;;;;;;;8.77;5.90;;;3.10;53.40;;;2.21;44.63;97758.19;5032988;28;20407;-78
2022/03/08 10:05:28;;;;;;;11.00;5.93;;;3.30;53.20;;;2.45;43.98;97764.81;5038386;28;20420;-77
2022/03/08 10:08:10;;;;;;;7.95;5.28;;;3.40;52.70;;;3.07;43.01;97752.53;5029443;28;20419;-77